createdAt,value
2023-04-18T00:02:45.729Z,24.20
2023-04-18T00:07:57.033Z,24.40
2023-04-18T00:13:02.229Z,23.50
2023-04-18T00:18:08.565Z,24.00
2023-04-18T00:23:17.320Z,24.13
2023-04-18T00:28:24.867Z,25.87
2023-04-18T00:33:30.042Z,26.17
2023-04-18T00:38:40.779Z,23.87
2023-04-18T00:43:49.812Z,26.03
2023-04-18T00:48:54.962Z,25.03
2023-04-18T00:54:02.889Z,25.17
2023-04-18T00:59:09.121Z,25.17
2023-04-18T01:04:21.524Z,28.57
2023-04-18T01:09:31.527Z,27.80
2023-04-18T01:14:36.584Z,29.70
2023-04-18T01:19:41.768Z,28.93
2023-04-18T01:24:55.260Z,29.47
2023-04-18T01:30:01.717Z,28.30
2023-04-18T01:35:10.141Z,28.10
2023-04-18T01:40:18.262Z,28.73
2023-04-18T01:45:23.628Z,29.20
2023-04-18T01:50:34.469Z,28.67
2023-04-18T01:55:42.303Z,30.37
2023-04-18T02:00:47.634Z,30.63
2023-04-18T02:05:54.658Z,31.30
2023-04-18T02:11:05.568Z,28.10
2023-04-18T02:16:16.221Z,28.77
2023-04-18T02:21:22.179Z,29.23
2023-04-18T02:26:30.220Z,30.23
2023-04-18T02:31:38.624Z,27.77
2023-04-18T02:36:44.470Z,29.40
2023-04-18T02:41:52.736Z,27.40
2023-04-18T02:47:00.601Z,26.07
2023-04-18T02:52:07.232Z,26.13
2023-04-18T02:57:17.005Z,25.83
2023-04-18T03:02:41.084Z,25.73
2023-04-18T03:08:24.608Z,23.83
2023-04-18T03:13:36.539Z,24.20
2023-04-18T03:18:49.080Z,25.73
2023-04-18T03:23:58.679Z,26.27
2023-04-18T03:29:11.718Z,25.93
2023-04-18T03:34:21.291Z,25.97
2023-04-18T03:39:30.430Z,26.50
2023-04-18T03:44:39.506Z,27.10
2023-04-18T03:49:48.170Z,27.27
2023-04-18T03:54:55.438Z,27.17
2023-04-18T04:00:15.687Z,27.27
2023-04-18T04:05:20.964Z,26.00
2023-04-18T04:10:28.871Z,26.17
2023-04-18T04:15:41.859Z,26.67
2023-04-18T04:20:57.671Z,25.60
2023-04-18T04:26:16.043Z,26.00
2023-04-18T04:31:33.112Z,27.17
2023-04-18T04:36:39.987Z,27.60
2023-04-18T04:41:54.389Z,26.33
2023-04-18T04:47:09.295Z,27.10
2023-04-18T04:52:17.386Z,26.00
2023-04-18T04:57:23.654Z,26.93
2023-04-18T05:02:37.082Z,25.27
2023-04-18T05:07:42.715Z,24.10
2023-04-18T05:13:01.565Z,23.37
2023-04-18T05:18:09.732Z,25.47
2023-04-18T05:23:14.817Z,25.03
2023-04-18T05:28:25.853Z,24.50
2023-04-18T05:33:35.172Z,25.07
2023-04-18T05:38:46.085Z,24.83
2023-04-18T05:44:04.957Z,24.23
2023-04-18T05:49:18.579Z,23.30
2023-04-18T05:54:25.431Z,23.67
2023-04-18T05:59:36.767Z,24.80
2023-04-18T06:04:49.300Z,25.00
2023-04-18T06:09:56.079Z,23.37
2023-04-18T06:15:03.638Z,23.67
2023-04-18T06:20:14.344Z,24.10
2023-04-18T06:25:19.715Z,22.87
2023-04-18T06:30:24.991Z,22.70
2023-04-18T06:35:35.592Z,22.73
2023-04-18T06:40:48.169Z,22.67
2023-04-18T06:45:56.521Z,22.57
2023-04-18T06:51:04.986Z,23.00
2023-04-18T06:56:13.684Z,23.60
2023-04-18T07:01:21.939Z,23.83
2023-04-18T07:06:30.251Z,22.40
2023-04-18T07:11:40.975Z,23.47
2023-04-18T07:16:49.160Z,22.83
2023-04-18T07:21:59.000Z,23.17
2023-04-18T07:27:05.020Z,21.77
2023-04-18T07:32:10.918Z,23.03
2023-04-18T07:37:19.593Z,23.90
2023-04-18T07:42:26.022Z,22.77
2023-04-18T07:47:33.812Z,22.23
2023-04-18T07:52:41.672Z,23.47
2023-04-18T07:57:50.739Z,21.37
2023-04-18T08:02:56.104Z,21.93
2023-04-18T08:08:04.145Z,20.93
2023-04-18T08:13:13.259Z,21.67
2023-04-18T08:18:20.123Z,20.70
2023-04-18T08:23:29.288Z,19.10
2023-04-18T08:28:46.283Z,19.00
2023-04-18T08:33:51.912Z,21.20
2023-04-18T08:38:59.700Z,20.37
2023-04-18T08:44:05.042Z,22.10
2023-04-18T08:49:17.455Z,21.70
2023-04-18T08:54:27.529Z,22.17
2023-04-18T08:59:37.885Z,21.27
2023-04-18T09:04:49.425Z,23.80
2023-04-18T09:10:01.216Z,22.03
2023-04-18T09:15:14.861Z,22.63
2023-04-18T09:20:34.992Z,23.00
2023-04-18T09:25:48.265Z,23.90
2023-04-18T09:30:55.416Z,24.67
2023-04-18T09:36:19.375Z,23.20
2023-04-18T09:41:27.765Z,22.67
2023-04-18T09:46:33.418Z,20.30
2023-04-18T09:51:39.564Z,21.00
2023-04-18T09:56:50.551Z,19.67
2023-04-18T10:01:57.905Z,21.37
2023-04-18T10:07:05.987Z,19.90
2023-04-18T10:12:15.300Z,20.93
2023-04-18T10:17:23.158Z,23.30
2023-04-18T10:22:31.021Z,21.43
2023-04-18T10:28:03.171Z,22.70
2023-04-18T10:33:31.883Z,23.43
2023-04-18T10:38:47.706Z,24.00
2023-04-18T10:44:18.545Z,24.77
2023-04-18T10:49:27.390Z,25.40
2023-04-18T10:54:40.275Z,24.10
2023-04-18T10:59:57.340Z,23.70
2023-04-18T11:05:05.107Z,23.57
2023-04-18T11:10:13.250Z,24.37
2023-04-18T11:15:29.168Z,23.93
2023-04-18T11:20:42.761Z,25.03
2023-04-18T11:25:49.643Z,23.77
2023-04-18T11:31:02.378Z,24.10
2023-04-18T11:36:12.474Z,24.33
2023-04-18T11:41:18.449Z,24.87
2023-04-18T11:46:27.804Z,24.03
2023-04-18T11:51:38.884Z,25.93
2023-04-18T11:56:51.034Z,23.40
2023-04-18T12:02:16.355Z,23.00
2023-04-18T12:07:37.936Z,24.67
2023-04-18T12:12:51.716Z,21.80
2023-04-18T12:18:01.462Z,24.17
2023-04-18T12:23:07.836Z,21.53
2023-04-18T12:28:20.289Z,21.37
2023-04-18T12:33:28.622Z,20.50
2023-04-18T12:38:33.992Z,20.90
2023-04-18T12:43:39.573Z,20.33
2023-04-18T12:48:49.627Z,20.87
2023-04-18T12:53:56.423Z,22.57
2023-04-18T12:59:03.824Z,21.90
2023-04-18T13:04:13.381Z,21.37
2023-04-18T13:09:19.231Z,20.83
2023-04-18T13:14:25.626Z,18.97
2023-04-18T13:19:33.570Z,18.60
2023-04-18T13:24:40.068Z,17.27
2023-04-18T13:29:48.100Z,18.53
2023-04-18T13:34:58.948Z,18.73
2023-04-18T13:40:07.076Z,18.63
2023-04-18T13:45:15.862Z,19.23
2023-04-18T13:50:23.679Z,18.47
2023-04-18T13:55:29.003Z,18.03
2023-04-18T14:00:34.896Z,18.47
2023-04-18T14:05:43.239Z,18.87
2023-04-18T14:10:48.391Z,16.30
2023-04-18T14:15:57.703Z,15.13
2023-04-18T14:21:07.804Z,14.93
2023-04-18T14:26:14.002Z,15.70
2023-04-18T14:31:19.527Z,15.90
2023-04-18T14:36:28.303Z,15.83
2023-04-18T14:41:33.486Z,17.30
2023-04-18T14:46:38.661Z,17.90
2023-04-18T14:51:46.826Z,19.43
2023-04-18T14:56:51.890Z,20.53
2023-04-18T15:01:57.133Z,19.77
2023-04-18T15:07:07.133Z,20.37
2023-04-18T15:12:12.913Z,21.20
2023-04-18T15:17:18.285Z,21.80
2023-04-18T15:22:26.168Z,21.23
2023-04-18T15:27:31.618Z,21.43
2023-04-18T15:32:37.109Z,21.10
2023-04-18T15:37:47.686Z,21.93
2023-04-18T15:42:55.644Z,21.77
2023-04-18T15:48:02.468Z,21.10
2023-04-18T15:53:10.940Z,20.93
2023-04-18T15:58:19.713Z,23.17
2023-04-18T16:03:28.372Z,21.63
2023-04-18T16:08:37.996Z,21.73
2023-04-18T16:13:45.911Z,22.63
2023-04-18T16:18:52.950Z,23.33
2023-04-18T16:24:01.474Z,20.10
2023-04-18T16:29:08.872Z,19.33
2023-04-18T16:34:16.358Z,19.73
2023-04-18T16:39:25.800Z,19.47
2023-04-18T16:44:30.993Z,18.03
2023-04-18T16:49:47.816Z,19.43
2023-04-18T16:54:55.624Z,20.00
2023-04-18T17:00:03.294Z,19.97
2023-04-18T17:05:14.298Z,20.93
2023-04-18T17:10:22.946Z,20.23
2023-04-18T17:15:31.554Z,19.03
2023-04-18T17:20:38.809Z,19.90
2023-04-18T17:25:50.855Z,20.23
2023-04-18T17:30:58.996Z,20.07
2023-04-18T17:36:06.119Z,19.53
2023-04-18T17:41:17.149Z,19.07
2023-04-18T17:46:24.085Z,18.80
2023-04-18T17:51:31.870Z,18.37
2023-04-18T17:56:39.735Z,19.83
2023-04-18T18:01:45.963Z,18.23
2023-04-18T18:07:04.879Z,18.60
2023-04-18T18:12:13.840Z,18.80
2023-04-18T18:17:19.682Z,18.23
2023-04-18T18:22:26.376Z,16.83
2023-04-18T18:27:34.822Z,17.87
2023-04-18T18:32:44.968Z,19.73
2023-04-18T18:37:50.333Z,17.03
2023-04-18T18:43:00.236Z,17.73
2023-04-18T18:48:07.535Z,16.27
2023-04-18T18:53:18.252Z,19.23
2023-04-18T18:58:26.641Z,19.23
2023-04-18T19:03:38.111Z,19.67
2023-04-18T19:08:44.578Z,17.47
2023-04-18T19:14:00.177Z,16.13
2023-04-18T19:19:05.997Z,19.03
2023-04-18T19:24:12.204Z,25.37
2023-04-18T19:29:21.326Z,18.63
2023-04-18T19:34:27.093Z,16.57
2023-04-18T19:39:33.521Z,17.93
2023-04-18T19:44:43.997Z,16.67
2023-04-18T19:49:50.170Z,16.73
2023-04-18T19:54:56.652Z,17.50
2023-04-18T20:00:09.210Z,17.17
2023-04-18T20:05:21.939Z,16.40
2023-04-18T20:10:28.016Z,16.33
2023-04-18T20:15:37.039Z,15.83
2023-04-18T20:20:42.597Z,16.03
2023-04-18T20:25:50.333Z,16.50
2023-04-18T20:31:02.704Z,17.43
2023-04-18T20:36:08.631Z,16.97
2023-04-18T20:41:21.066Z,18.77
2023-04-18T20:46:30.172Z,19.37
2023-04-18T20:51:40.078Z,18.90
2023-04-18T20:56:45.579Z,18.37
2023-04-18T21:01:53.423Z,18.30
2023-04-18T21:06:58.496Z,17.73
2023-04-18T21:12:03.898Z,18.27
2023-04-18T21:17:17.184Z,18.53
2023-04-18T21:22:22.305Z,20.47
2023-04-18T21:27:29.138Z,20.80
2023-04-18T21:32:36.822Z,19.23
2023-04-18T21:37:44.397Z,20.30
2023-04-18T21:42:51.114Z,20.03
2023-04-18T21:47:59.086Z,19.87
2023-04-18T21:53:04.507Z,18.83
2023-04-18T21:58:13.112Z,18.93
2023-04-18T22:03:21.022Z,19.70
2023-04-18T22:08:26.589Z,19.53
2023-04-18T22:13:33.310Z,19.60
2023-04-18T22:18:44.473Z,18.57
2023-04-18T22:23:49.540Z,18.77
2023-04-18T22:28:56.765Z,17.20
2023-04-18T22:34:07.206Z,17.00
2023-04-18T22:39:15.097Z,16.60
2023-04-18T22:44:20.197Z,15.10
2023-04-18T22:49:27.897Z,14.57
2023-04-18T22:54:33.209Z,13.40
2023-04-18T22:59:39.393Z,14.20
2023-04-18T23:04:47.288Z,14.33
2023-04-18T23:09:52.472Z,14.77
2023-04-18T23:14:57.731Z,14.40
2023-04-18T23:20:07.031Z,13.13
2023-04-18T23:25:12.779Z,12.87
2023-04-18T23:30:17.918Z,10.90
2023-04-18T23:35:25.893Z,10.50
2023-04-18T23:40:31.245Z,11.57
2023-04-18T23:45:36.769Z,12.07
2023-04-18T23:50:48.426Z,10.53
2023-04-18T23:55:53.841Z,10.23
